Jonni Ritscher — A8JT7 — position and weather

sailwx.info

Track history (hours):
 
Tides and Currents Weather Stations Pressure Air Temp Water Temp Dewpoint Dewpoint Depression Visibility Wind Speed Wind Dir Waves Ship Positions

Jonni Ritscher

Last reported at 2016-Jul-28 05:33 UTC. Time now 2016-Jul-29 04:04 UTC.
Position N 59°26' E 021°30'.

Length 178 m; draft 9.1 m.

Type: Cargo ship. MMSI: 636091136.

Date/timePositionNaut miles runAvg speedWind from/ knotsBaromVisibWave heightAir tempDewpointWater temp
2016-Jul-28 05:33N 59°26' E 021°30'10 9.5
2016-Jul-28 04:33N 59°28' E 021°48'10 9.5
2016-Jul-28 03:30N 59°30' E 022°07'13 9.3
2016-Jul-28 02:06N 59°32' E 022°33'6 9.4
2016-Jul-28 01:27N 59°33' E 022°45'8 9.4
2016-Jul-28 00:33N 59°35' E 023°01'9 9.3
2016-Jul-27 23:33N 59°38' E 023°18'9 9.5
2016-Jul-27 22:33N 59°41' E 023°36'10 9.7
2016-Jul-27 21:33N 59°43' E 023°55'1010.0
2016-Jul-27 20:33N 59°46' E 024°14'10 9.6
2016-Jul-27 19:33N 59°48' E 024°32'10 9.6
2016-Jul-27 18:33N 59°50' E 024°51'9 9.3
2016-Jul-27 17:33N 59°52' E 025°09'7 6.6
2016-Jul-27 16:33N 59°53' E 025°22'9 9.1
2016-Jul-27 15:33N 59°55' E 025°40'9 9.2
2016-Jul-27 14:33N 59°58' E 025°57'10 9.3
2016-Jul-27 13:27N 60°05' E 026°13'1213.6
2016-Jul-27 12:33N 60°15' E 026°27'1616.4
2016-Jul-27 11:33N 60°24' E 026°54'1 1.0
2016-Jul-27 10:33N 60°25' E 026°55'0 0.0
2016-Jul-27 09:33N 60°25' E 026°55'0 0.0
2016-Jul-27 08:29N 60°25' E 026°55'0 0.1
2016-Jul-27 07:32N 60°25' E 026°55'0 0.1
2016-Jul-27 06:32N 60°25' E 026°55'0 0.0
2016-Jul-27 05:31N 60°25' E 026°55'0 0.1
2016-Jul-27 04:31N 60°25' E 026°55'0 0.1
2016-Jul-27 03:33N 60°25' E 026°55'0 0.1
2016-Jul-27 02:33N 60°25' E 026°55'0 0.0
2016-Jul-27 01:32N 60°25' E 026°55'0 0.0
2016-Jul-27 00:32N 60°25' E 026°55'0 0.0
2016-Jul-26 23:31N 60°25' E 026°55'0 0.1
2016-Jul-26 22:31N 60°25' E 026°55'0 0.1
2016-Jul-26 21:31N 60°25' E 026°55'0 0.0
2016-Jul-26 20:33N 60°25' E 026°55'0 0.1
2016-Jul-26 19:33N 60°25' E 026°55'0 0.0
2016-Jul-26 18:32N 60°25' E 026°55'0 0.1
2016-Jul-26 17:32N 60°25' E 026°55'0 0.0
2016-Jul-26 16:31N 60°25' E 026°55'0 0.1
2016-Jul-26 15:31N 60°25' E 026°55'0 0.1
2016-Jul-26 14:31N 60°25' E 026°55'0 0.0
2016-Jul-26 13:33N 60°25' E 026°55'0 0.1
2016-Jul-26 12:33N 60°25' E 026°55'0 0.0
2016-Jul-26 11:32N 60°25' E 026°55'0 0.0
2016-Jul-26 10:32N 60°25' E 026°55'0 0.0
2016-Jul-26 09:31N 60°25' E 026°55'0 0.0
2016-Jul-26 08:31N 60°25' E 026°55'0 0.0
2016-Jul-26 07:31N 60°25' E 026°55'0 0.0
2016-Jul-26 06:33N 60°25' E 026°55'0 0.0
2016-Jul-26 05:33N 60°25' E 026°55'0 0.0
2016-Jul-26 04:32N 60°25' E 026°55'0 0.0
2016-Jul-26 03:32N 60°25' E 026°55'0 0.0
2016-Jul-26 02:28N 60°25' E 026°55'0 0.0
2016-Jul-26 01:31N 60°25' E 026°55'0 0.1
2016-Jul-26 00:31N 60°25' E 026°55'0 0.1
2016-Jul-25 23:33N 60°25' E 026°55'0 0.0
2016-Jul-25 22:33N 60°25' E 026°55'0 0.0
2016-Jul-25 21:32N 60°25' E 026°55'0 0.0
2016-Jul-25 20:32N 60°25' E 026°55'0 0.0
2016-Jul-25 19:31N 60°25' E 026°55'0 0.0
2016-Jul-25 18:32N 60°25' E 026°55'8 8.4
2016-Jul-25 17:34N 60°21' E 026°40'1514.6
2016-Jul-25 16:33N 60°10' E 026°21'1414.4
2016-Jul-25 15:33N 59°59' E 026°03'4214.0
2016-Jul-25 12:33N 59°46' E 024°43'5814.5
2016-Jul-25 08:33N 59°29' E 022°54'1414.4
2016-Jul-25 07:33N 59°22' E 022°28'30614.5
2016-Jul-24 10:28N 55°44' E 015°47'1212.2
2016-Jul-24 09:31N 55°36' E 015°32'7 6.9
2016-Jul-24 08:32N 55°37' E 015°20'1414.9
2016-Jul-24 07:33N 55°30' E 014°58'1615.7
2016-Jul-24 06:34N 55°21' E 014°35'1716.8
2016-Jul-24 05:33N 55°08' E 014°16'1616.2
2016-Jul-24 04:33N 54°58' E 013°53'1716.7
2016-Jul-24 03:33N 54°53' E 013°26'1716.6
2016-Jul-24 02:33N 54°48' E 012°58'1716.3
2016-Jul-24 01:31N 54°41' E 012°32'1515.3
2016-Jul-24 00:33N 54°30' E 012°14'1414.0
2016-Jul-23 23:33N 54°24' E 011°53'1414.0
2016-Jul-23 22:33N 54°29' E 011°30'1414.0
2016-Jul-23 21:34N 54°35' E 011°09'1313.0
2016-Jul-23 20:34N 54°44' E 010°52'1313.1
2016-Jul-23 19:33N 54°57' E 010°56'1414.2
2016-Jul-23 18:33N 55°10' E 011°03'2911.7
2016-Jul-23 16:05N 55°38' E 010°47'813.9
2016-Jul-23 15:29N 55°46' E 010°48'1111.1
2016-Jul-23 14:30N 55°56' E 010°58'1212.5
2016-Jul-23 13:33N 56°06' E 011°08'1414.3
2016-Jul-23 12:33N 56°18' E 011°23'1515.1
2016-Jul-23 11:33N 56°31' E 011°37'1515.1
2016-Jul-23 10:33N 56°44' E 011°51'1615.4
2016-Jul-23 09:33N 56°59' E 011°43'1515.4
2016-Jul-23 08:33N 57°13' E 011°33'1515.1
2016-Jul-23 07:33N 57°27' E 011°24'1515.0
2016-Jul-23 06:33N 57°37' E 011°04'2814.2
2016-Jul-23 04:34N 57°48' E 010°15'1515.1
2016-Jul-23 03:33N 57°40' E 009°51'1615.4
2016-Jul-23 02:32N 57°32' E 009°26'12014.9
2016-Jul-22 18:31N 56°03' E 006°59'2015.0
2016-Jul-22 17:12N 55°46' E 006°42'914.8
2016-Jul-22 16:33N 55°38' E 006°33'1614.7
2016-Jul-22 15:28N 55°24' E 006°20'1414.8
2016-Jul-22 14:32N 55°12' E 006°09'1514.5
2016-Jul-22 13:31N 54°59' E 005°56'1814.5
2016-Jul-22 12:16N 54°43' E 005°41'1114.8
2016-Jul-22 11:33N 54°33' E 005°32'1514.9
2016-Jul-22 10:33N 54°20' E 005°20'1515.1
2016-Jul-22 09:33N 54°07' E 005°09'1515.1
2016-Jul-22 08:33N 53°52' E 004°60'1515.0
2016-Jul-22 07:33N 53°38' E 004°51'1615.3
2016-Jul-22 06:30N 53°24' E 004°41'3517.9
2016-Jul-22 04:33N 52°52' E 004°14'1817.5
2016-Jul-22 03:31N 52°39' E 003°55'1717.6
2016-Jul-22 02:32N 52°25' E 003°36'1717.2
2016-Jul-22 01:33N 52°13' E 003°17'1716.6
2016-Jul-22 00:33N 52°02' E 002°58'1615.7
2016-Jul-21 23:33N 51°56' E 002°34'1615.6
2016-Jul-21 22:33N 51°53' E 002°09'1514.5
2016-Jul-21 21:33N 51°48' E 001°47'1313.1
2016-Jul-21 20:34N 51°56' E 001°30'8 7.5
2016-Jul-21 19:33N 51°57' E 001°18'0 0.0
2016-Jul-21 18:33N 51°57' E 001°18'0 0.0
2016-Jul-21 17:32N 51°57' E 001°18'0 0.0
2016-Jul-21 16:32N 51°57' E 001°18'0 0.0
2016-Jul-21 15:31N 51°57' E 001°18'0 0.0
2016-Jul-21 14:31N 51°57' E 001°18'0 0.0
2016-Jul-21 13:33N 51°57' E 001°18'0 0.0
2016-Jul-21 12:33N 51°57' E 001°18'0 0.0
2016-Jul-21 11:32N 51°57' E 001°18'0 0.0
2016-Jul-21 10:32N 51°57' E 001°18'0 0.0
2016-Jul-21 09:32N 51°57' E 001°18'0 0.0
2016-Jul-21 08:31N 51°57' E 001°18'0 0.0
2016-Jul-21 07:31N 51°57' E 001°18'0 0.0
2016-Jul-21 06:33N 51°57' E 001°18'0 0.0
2016-Jul-21 05:33N 51°57' E 001°18'0 0.0
2016-Jul-21 04:32N 51°57' E 001°18'0 0.0
2016-Jul-21 03:32N 51°57' E 001°18'0 0.0
2016-Jul-21 02:29N 51°57' E 001°18'0 0.0
2016-Jul-21 01:31N 51°57' E 001°18'0 0.0
2016-Jul-21 00:31N 51°57' E 001°18'0 0.0
2016-Jul-20 23:33N 51°57' E 001°18'0 0.0
2016-Jul-20 22:33N 51°57' E 001°18'0 0.0
2016-Jul-20 21:32N 51°57' E 001°18'0 0.0
2016-Jul-20 20:32N 51°57' E 001°18'0 0.0
2016-Jul-20 19:31N 51°57' E 001°18'0 0.0
2016-Jul-20 18:31N 51°57' E 001°18'0 0.0
2016-Jul-20 17:31N 51°57' E 001°18'0 0.0
2016-Jul-20 16:33N 51°57' E 001°18'0 0.0
2016-Jul-20 15:33N 51°57' E 001°18'0 0.0
2016-Jul-20 14:29N 51°57' E 001°18'0 0.0
2016-Jul-20 13:32N 51°57' E 001°18'0 0.0
2016-Jul-20 12:32N 51°57' E 001°18'0 0.0
2016-Jul-20 11:31N 51°57' E 001°18'0 0.0
2016-Jul-20 10:31N 51°57' E 001°18'0 0.0
2016-Jul-20 09:33N 51°57' E 001°18'0 0.0
2016-Jul-20 08:33N 51°57' E 001°18'0 0.0
2016-Jul-20 07:32N 51°57' E 001°18'0 0.0
2016-Jul-20 06:32N 51°57' E 001°18'0 0.0
2016-Jul-20 05:31N 51°57' E 001°18'0 0.0
2016-Jul-20 04:31N 51°57' E 001°18'0 0.0
2016-Jul-20 03:31N 51°57' E 001°18'2 2.4
2016-Jul-20 02:33N 51°55' E 001°20'1312.9
2016-Jul-20 01:34N 51°52' E 001°40'2 2.2
2016-Jul-20 00:29N 51°54' E 001°42'0 0.0
2016-Jul-19 23:32N 51°54' E 001°41'0 0.1
2016-Jul-19 22:31N 51°54' E 001°42'0 0.0
2016-Jul-19 21:31N 51°54' E 001°42'0 0.0
2016-Jul-19 20:33N 51°54' E 001°42'0 0.0
2016-Jul-19 19:33N 51°54' E 001°42'0 0.0
2016-Jul-19 18:32N 51°54' E 001°42'0 0.0
2016-Jul-19 17:32N 51°54' E 001°42'0 0.1
2016-Jul-19 16:32N 51°54' E 001°42'0 0.0
2016-Jul-19 15:31N 51°54' E 001°42'0 0.0
2016-Jul-19 14:31N 51°54' E 001°42'0 0.0
2016-Jul-19 13:33N 51°54' E 001°42'0 0.0
2016-Jul-19 12:33N 51°54' E 001°42'0 0.1
2016-Jul-19 11:32N 51°54' E 001°42'0 0.0
2016-Jul-19 10:32N 51°54' E 001°42'0 0.0
2016-Jul-19 09:32N 51°54' E 001°42'0 0.0
2016-Jul-19 08:31N 51°54' E 001°42'0 0.0
2016-Jul-19 07:31N 51°54' E 001°42'0 0.0
2016-Jul-19 04:32N 51°54' E 001°42'0 0.0
2016-Jul-19 03:32N 51°54' E 001°42'0 0.0
2016-Jul-19 02:32N 51°54' E 001°42'0 0.0
2016-Jul-19 01:31N 51°54' E 001°42'0 0.0
2016-Jul-19 00:31N 51°54' E 001°42'0 0.0
2016-Jul-18 23:33N 51°54' E 001°42'0 0.0
2016-Jul-18 22:33N 51°54' E 001°42'0 0.0
2016-Jul-18 21:32N 51°54' E 001°42'0 0.0
2016-Jul-18 20:32N 51°54' E 001°42'0 0.0
2016-Jul-18 19:32N 51°54' E 001°42'0 0.0
2016-Jul-18 18:31N 51°54' E 001°42'0 0.1
2016-Jul-18 17:31N 51°54' E 001°42'0 0.0
2016-Jul-18 16:33N 51°54' E 001°42'0 0.0
2016-Jul-18 15:30N 51°54' E 001°42'0 0.0
2016-Jul-18 14:32N 51°54' E 001°42'0 0.0
2016-Jul-18 13:32N 51°54' E 001°42'0 0.0
2016-Jul-18 12:32N 51°54' E 001°42'0 0.0
2016-Jul-18 11:31N 51°54' E 001°42'0 0.0
2016-Jul-18 10:31N 51°54' E 001°42'0 0.4
2016-Jul-18 09:33N 51°54' E 001°42'8 7.7
2016-Jul-18 08:34N 51°50' E 001°52'1212.1
2016-Jul-18 07:33N 51°54' E 002°10'1211.8
2016-Jul-18 06:33N 51°58' E 002°29'1111.4
2016-Jul-18 05:33N 52°02' E 002°46'  
Track history (hours):
 
Tides and Currents Weather Stations Pressure Air Temp Water Temp Dewpoint Dewpoint Depression Visibility Wind Speed Wind Dir Waves Ship Positions

Jonni Ritscher

Last reported at 2016-Jul-28 05:33 UTC. Time now 2016-Jul-29 04:04 UTC.
Position N 59°26' E 021°30'.

Length 178 m; draft 9.1 m.

Type: Cargo ship. MMSI: 636091136.

Date/timePositionNaut miles runAvg speedWind from/ knotsBaromVisibWave heightAir tempDewpointWater temp
2016-Jul-28 05:33N 59°26' E 021°30'10 9.5
2016-Jul-28 04:33N 59°28' E 021°48'10 9.5
2016-Jul-28 03:30N 59°30' E 022°07'13 9.3
2016-Jul-28 02:06N 59°32' E 022°33'6 9.4
2016-Jul-28 01:27N 59°33' E 022°45'8 9.4
2016-Jul-28 00:33N 59°35' E 023°01'9 9.3
2016-Jul-27 23:33N 59°38' E 023°18'9 9.5
2016-Jul-27 22:33N 59°41' E 023°36'10 9.7
2016-Jul-27 21:33N 59°43' E 023°55'1010.0
2016-Jul-27 20:33N 59°46' E 024°14'10 9.6
2016-Jul-27 19:33N 59°48' E 024°32'10 9.6
2016-Jul-27 18:33N 59°50' E 024°51'9 9.3
2016-Jul-27 17:33N 59°52' E 025°09'7 6.6
2016-Jul-27 16:33N 59°53' E 025°22'9 9.1
2016-Jul-27 15:33N 59°55' E 025°40'9 9.2
2016-Jul-27 14:33N 59°58' E 025°57'10 9.3
2016-Jul-27 13:27N 60°05' E 026°13'1213.6
2016-Jul-27 12:33N 60°15' E 026°27'1616.4
2016-Jul-27 11:33N 60°24' E 026°54'1 1.0
2016-Jul-27 10:33N 60°25' E 026°55'0 0.0
2016-Jul-27 09:33N 60°25' E 026°55'0 0.0
2016-Jul-27 08:29N 60°25' E 026°55'0 0.1
2016-Jul-27 07:32N 60°25' E 026°55'0 0.1
2016-Jul-27 06:32N 60°25' E 026°55'0 0.0
2016-Jul-27 05:31N 60°25' E 026°55'0 0.1
2016-Jul-27 04:31N 60°25' E 026°55'0 0.1
2016-Jul-27 03:33N 60°25' E 026°55'0 0.1
2016-Jul-27 02:33N 60°25' E 026°55'0 0.0
2016-Jul-27 01:32N 60°25' E 026°55'0 0.0
2016-Jul-27 00:32N 60°25' E 026°55'0 0.0
2016-Jul-26 23:31N 60°25' E 026°55'0 0.1
2016-Jul-26 22:31N 60°25' E 026°55'0 0.1
2016-Jul-26 21:31N 60°25' E 026°55'0 0.0
2016-Jul-26 20:33N 60°25' E 026°55'0 0.1
2016-Jul-26 19:33N 60°25' E 026°55'0 0.0
2016-Jul-26 18:32N 60°25' E 026°55'0 0.1
2016-Jul-26 17:32N 60°25' E 026°55'0 0.0
2016-Jul-26 16:31N 60°25' E 026°55'0 0.1
2016-Jul-26 15:31N 60°25' E 026°55'0 0.1
2016-Jul-26 14:31N 60°25' E 026°55'0 0.0
2016-Jul-26 13:33N 60°25' E 026°55'0 0.1
2016-Jul-26 12:33N 60°25' E 026°55'0 0.0
2016-Jul-26 11:32N 60°25' E 026°55'0 0.0
2016-Jul-26 10:32N 60°25' E 026°55'0 0.0
2016-Jul-26 09:31N 60°25' E 026°55'0 0.0
2016-Jul-26 08:31N 60°25' E 026°55'0 0.0
2016-Jul-26 07:31N 60°25' E 026°55'0 0.0
2016-Jul-26 06:33N 60°25' E 026°55'0 0.0
2016-Jul-26 05:33N 60°25' E 026°55'0 0.0
2016-Jul-26 04:32N 60°25' E 026°55'0 0.0
2016-Jul-26 03:32N 60°25' E 026°55'0 0.0
2016-Jul-26 02:28N 60°25' E 026°55'0 0.0
2016-Jul-26 01:31N 60°25' E 026°55'0 0.1
2016-Jul-26 00:31N 60°25' E 026°55'0 0.1
2016-Jul-25 23:33N 60°25' E 026°55'0 0.0
2016-Jul-25 22:33N 60°25' E 026°55'0 0.0
2016-Jul-25 21:32N 60°25' E 026°55'0 0.0
2016-Jul-25 20:32N 60°25' E 026°55'0 0.0
2016-Jul-25 19:31N 60°25' E 026°55'0 0.0
2016-Jul-25 18:32N 60°25' E 026°55'8 8.4
2016-Jul-25 17:34N 60°21' E 026°40'1514.6
2016-Jul-25 16:33N 60°10' E 026°21'1414.4
2016-Jul-25 15:33N 59°59' E 026°03'4214.0
2016-Jul-25 12:33N 59°46' E 024°43'5814.5
2016-Jul-25 08:33N 59°29' E 022°54'1414.4
2016-Jul-25 07:33N 59°22' E 022°28'30614.5
2016-Jul-24 10:28N 55°44' E 015°47'1212.2
2016-Jul-24 09:31N 55°36' E 015°32'7 6.9
2016-Jul-24 08:32N 55°37' E 015°20'1414.9
2016-Jul-24 07:33N 55°30' E 014°58'1615.7
2016-Jul-24 06:34N 55°21' E 014°35'1716.8
2016-Jul-24 05:33N 55°08' E 014°16'1616.2
2016-Jul-24 04:33N 54°58' E 013°53'1716.7
2016-Jul-24 03:33N 54°53' E 013°26'1716.6
2016-Jul-24 02:33N 54°48' E 012°58'1716.3
2016-Jul-24 01:31N 54°41' E 012°32'1515.3
2016-Jul-24 00:33N 54°30' E 012°14'1414.0
2016-Jul-23 23:33N 54°24' E 011°53'1414.0
2016-Jul-23 22:33N 54°29' E 011°30'1414.0
2016-Jul-23 21:34N 54°35' E 011°09'1313.0
2016-Jul-23 20:34N 54°44' E 010°52'1313.1
2016-Jul-23 19:33N 54°57' E 010°56'1414.2
2016-Jul-23 18:33N 55°10' E 011°03'2911.7
2016-Jul-23 16:05N 55°38' E 010°47'813.9
2016-Jul-23 15:29N 55°46' E 010°48'1111.1
2016-Jul-23 14:30N 55°56' E 010°58'1212.5
2016-Jul-23 13:33N 56°06' E 011°08'1414.3
2016-Jul-23 12:33N 56°18' E 011°23'1515.1
2016-Jul-23 11:33N 56°31' E 011°37'1515.1
2016-Jul-23 10:33N 56°44' E 011°51'1615.4
2016-Jul-23 09:33N 56°59' E 011°43'1515.4
2016-Jul-23 08:33N 57°13' E 011°33'1515.1
2016-Jul-23 07:33N 57°27' E 011°24'1515.0
2016-Jul-23 06:33N 57°37' E 011°04'2814.2
2016-Jul-23 04:34N 57°48' E 010°15'1515.1
2016-Jul-23 03:33N 57°40' E 009°51'1615.4
2016-Jul-23 02:32N 57°32' E 009°26'12014.9
2016-Jul-22 18:31N 56°03' E 006°59'2015.0
2016-Jul-22 17:12N 55°46' E 006°42'914.8
2016-Jul-22 16:33N 55°38' E 006°33'1614.7
2016-Jul-22 15:28N 55°24' E 006°20'1414.8
2016-Jul-22 14:32N 55°12' E 006°09'1514.5
2016-Jul-22 13:31N 54°59' E 005°56'1814.5
2016-Jul-22 12:16N 54°43' E 005°41'1114.8
2016-Jul-22 11:33N 54°33' E 005°32'1514.9
2016-Jul-22 10:33N 54°20' E 005°20'1515.1
2016-Jul-22 09:33N 54°07' E 005°09'1515.1
2016-Jul-22 08:33N 53°52' E 004°60'1515.0
2016-Jul-22 07:33N 53°38' E 004°51'1615.3
2016-Jul-22 06:30N 53°24' E 004°41'3517.9
2016-Jul-22 04:33N 52°52' E 004°14'1817.5
2016-Jul-22 03:31N 52°39' E 003°55'1717.6
2016-Jul-22 02:32N 52°25' E 003°36'1717.2
2016-Jul-22 01:33N 52°13' E 003°17'1716.6
2016-Jul-22 00:33N 52°02' E 002°58'1615.7
2016-Jul-21 23:33N 51°56' E 002°34'1615.6
2016-Jul-21 22:33N 51°53' E 002°09'1514.5
2016-Jul-21 21:33N 51°48' E 001°47'1313.1
2016-Jul-21 20:34N 51°56' E 001°30'8 7.5
2016-Jul-21 19:33N 51°57' E 001°18'0 0.0
2016-Jul-21 18:33N 51°57' E 001°18'0 0.0
2016-Jul-21 17:32N 51°57' E 001°18'0 0.0
2016-Jul-21 16:32N 51°57' E 001°18'0 0.0
2016-Jul-21 15:31N 51°57' E 001°18'0 0.0
2016-Jul-21 14:31N 51°57' E 001°18'0 0.0
2016-Jul-21 13:33N 51°57' E 001°18'0 0.0
2016-Jul-21 12:33N 51°57' E 001°18'0 0.0
2016-Jul-21 11:32N 51°57' E 001°18'0 0.0
2016-Jul-21 10:32N 51°57' E 001°18'0 0.0
2016-Jul-21 09:32N 51°57' E 001°18'0 0.0
2016-Jul-21 08:31N 51°57' E 001°18'0 0.0
2016-Jul-21 07:31N 51°57' E 001°18'0 0.0
2016-Jul-21 06:33N 51°57' E 001°18'0 0.0
2016-Jul-21 05:33N 51°57' E 001°18'0 0.0
2016-Jul-21 04:32N 51°57' E 001°18'0 0.0
2016-Jul-21 03:32N 51°57' E 001°18'0 0.0
2016-Jul-21 02:29N 51°57' E 001°18'0 0.0
2016-Jul-21 01:31N 51°57' E 001°18'0 0.0
2016-Jul-21 00:31N 51°57' E 001°18'0 0.0
2016-Jul-20 23:33N 51°57' E 001°18'0 0.0
2016-Jul-20 22:33N 51°57' E 001°18'0 0.0
2016-Jul-20 21:32N 51°57' E 001°18'0 0.0
2016-Jul-20 20:32N 51°57' E 001°18'0 0.0
2016-Jul-20 19:31N 51°57' E 001°18'0 0.0
2016-Jul-20 18:31N 51°57' E 001°18'0 0.0
2016-Jul-20 17:31N 51°57' E 001°18'0 0.0
2016-Jul-20 16:33N 51°57' E 001°18'0 0.0
2016-Jul-20 15:33N 51°57' E 001°18'0 0.0
2016-Jul-20 14:29N 51°57' E 001°18'0 0.0
2016-Jul-20 13:32N 51°57' E 001°18'0 0.0
2016-Jul-20 12:32N 51°57' E 001°18'0 0.0
2016-Jul-20 11:31N 51°57' E 001°18'0 0.0
2016-Jul-20 10:31N 51°57' E 001°18'0 0.0
2016-Jul-20 09:33N 51°57' E 001°18'0 0.0
2016-Jul-20 08:33N 51°57' E 001°18'0 0.0
2016-Jul-20 07:32N 51°57' E 001°18'0 0.0
2016-Jul-20 06:32N 51°57' E 001°18'0 0.0
2016-Jul-20 05:31N 51°57' E 001°18'0 0.0
2016-Jul-20 04:31N 51°57' E 001°18'0 0.0
2016-Jul-20 03:31N 51°57' E 001°18'2 2.4
2016-Jul-20 02:33N 51°55' E 001°20'1312.9
2016-Jul-20 01:34N 51°52' E 001°40'2 2.2
2016-Jul-20 00:29N 51°54' E 001°42'0 0.0
2016-Jul-19 23:32N 51°54' E 001°41'0 0.1
2016-Jul-19 22:31N 51°54' E 001°42'0 0.0
2016-Jul-19 21:31N 51°54' E 001°42'0 0.0
2016-Jul-19 20:33N 51°54' E 001°42'0 0.0
2016-Jul-19 19:33N 51°54' E 001°42'0 0.0
2016-Jul-19 18:32N 51°54' E 001°42'0 0.0
2016-Jul-19 17:32N 51°54' E 001°42'0 0.1
2016-Jul-19 16:32N 51°54' E 001°42'0 0.0
2016-Jul-19 15:31N 51°54' E 001°42'0 0.0
2016-Jul-19 14:31N 51°54' E 001°42'0 0.0
2016-Jul-19 13:33N 51°54' E 001°42'0 0.0
2016-Jul-19 12:33N 51°54' E 001°42'0 0.1
2016-Jul-19 11:32N 51°54' E 001°42'0 0.0
2016-Jul-19 10:32N 51°54' E 001°42'0 0.0
2016-Jul-19 09:32N 51°54' E 001°42'0 0.0
2016-Jul-19 08:31N 51°54' E 001°42'0 0.0
2016-Jul-19 07:31N 51°54' E 001°42'0 0.0
2016-Jul-19 04:32N 51°54' E 001°42'0 0.0
2016-Jul-19 03:32N 51°54' E 001°42'0 0.0
2016-Jul-19 02:32N 51°54' E 001°42'0 0.0
2016-Jul-19 01:31N 51°54' E 001°42'0 0.0
2016-Jul-19 00:31N 51°54' E 001°42'0 0.0
2016-Jul-18 23:33N 51°54' E 001°42'0 0.0
2016-Jul-18 22:33N 51°54' E 001°42'0 0.0
2016-Jul-18 21:32N 51°54' E 001°42'0 0.0
2016-Jul-18 20:32N 51°54' E 001°42'0 0.0
2016-Jul-18 19:32N 51°54' E 001°42'0 0.0
2016-Jul-18 18:31N 51°54' E 001°42'0 0.1
2016-Jul-18 17:31N 51°54' E 001°42'0 0.0
2016-Jul-18 16:33N 51°54' E 001°42'0 0.0
2016-Jul-18 15:30N 51°54' E 001°42'0 0.0
2016-Jul-18 14:32N 51°54' E 001°42'0 0.0
2016-Jul-18 13:32N 51°54' E 001°42'0 0.0
2016-Jul-18 12:32N 51°54' E 001°42'0 0.0
2016-Jul-18 11:31N 51°54' E 001°42'0 0.0
2016-Jul-18 10:31N 51°54' E 001°42'0 0.4
2016-Jul-18 09:33N 51°54' E 001°42'8 7.7
2016-Jul-18 08:34N 51°50' E 001°52'1212.1
2016-Jul-18 07:33N 51°54' E 002°10'1211.8
2016-Jul-18 06:33N 51°58' E 002°29'1111.4
2016-Jul-18 05:33N 52°02' E 002°46'  

Dump ship's entire track history